Eko 2 — SY9957 — position and weather

sailwx.info

Track history (hours):
 
Tides and Currents Weather Stations Pressure Air Temp Water Temp Dewpoint Dewpoint Depression Visibility Wind Speed Wind Dir Waves Ship Positions

Eko 2

Last reported at 2017-Jan-13 15:33 UTC. Time now 2017-Jan-17 19:16 UTC.
Position N 37°04' E 025°18'.

Length 89 m; draft 4.3 m.

Type: Ship (hazmat cat A). MMSI: 240827000.

Date/timePositionNaut miles runAvg speedWind from/ knotsBaromVisibWave heightAir tempDewpointWater temp
2017-Jan-13 15:33N 37°04' E 025°18'1010.0
2017-Jan-13 14:33N 37°14' E 025°19'1310.1
2017-Jan-13 13:17N 37°26' E 025°17'2 2.9
2017-Jan-13 12:31N 37°28' E 025°20'0 0.0
2017-Jan-13 11:31N 37°28' E 025°20'0 0.0
2017-Jan-13 10:31N 37°28' E 025°20'0 0.0
2017-Jan-13 09:31N 37°28' E 025°20'0 0.0
2017-Jan-13 08:31N 37°28' E 025°20'0 0.0
2017-Jan-13 07:31N 37°28' E 025°20'0 0.0
2017-Jan-13 06:31N 37°28' E 025°20'0 0.0
2017-Jan-13 05:31N 37°28' E 025°20'0 0.0
2017-Jan-13 04:28N 37°28' E 025°20'0 0.0
2017-Jan-13 03:31N 37°28' E 025°20'0 0.5
2017-Jan-13 02:33N 37°28' E 025°19'9 9.3
2017-Jan-13 01:33N 37°30' E 025°07'6310.0
2017-Jan-12 19:14N 37°38' E 023°49'6 8.9
2017-Jan-12 18:33N 37°40' E 023°42'1010.2
2017-Jan-12 17:33N 37°50' E 023°37'8 8.2
2017-Jan-12 16:33N 37°57' E 023°33'4 4.1
2017-Jan-12 15:32N 38°02' E 023°32'0 0.0
2017-Jan-12 14:29N 38°02' E 023°32'0 0.0
2017-Jan-12 13:32N 38°02' E 023°32'0 0.0
2017-Jan-12 12:32N 38°02' E 023°32'0 0.1
2017-Jan-12 11:32N 38°02' E 023°32'0 0.0
2017-Jan-12 10:32N 38°02' E 023°32'0 0.0
2017-Jan-12 09:32N 38°02' E 023°32'0 0.1
2017-Jan-12 08:29N 38°02' E 023°32'0 0.1
2017-Jan-12 07:32N 38°02' E 023°32'0 0.1
2017-Jan-12 06:32N 38°02' E 023°32'0 0.0
2017-Jan-12 05:32N 38°02' E 023°32'0 0.0
2017-Jan-12 04:32N 38°02' E 023°32'0 0.1
2017-Jan-12 03:32N 38°02' E 023°32'0 0.1
2017-Jan-12 02:32N 38°02' E 023°32'0 0.1
2017-Jan-12 01:32N 38°02' E 023°32'0 0.0
2017-Jan-12 00:32N 38°02' E 023°32'0 0.0
2017-Jan-11 23:32N 38°02' E 023°32'0 0.0
2017-Jan-11 22:29N 38°02' E 023°32'0 0.0
2017-Jan-11 21:32N 38°02' E 023°32'0 0.0
2017-Jan-11 20:32N 38°02' E 023°32'0 0.0
2017-Jan-11 19:32N 38°02' E 023°32'0 0.1
2017-Jan-11 18:32N 38°02' E 023°32'0 0.1
2017-Jan-11 17:29N 38°02' E 023°32'0 0.0
2017-Jan-11 16:32N 38°02' E 023°32'0 0.1
2017-Jan-11 15:32N 38°02' E 023°32'0 0.0
2017-Jan-11 14:32N 38°02' E 023°32'0 0.0
2017-Jan-11 13:32N 38°02' E 023°32'3 2.5
2017-Jan-11 12:31N 38°02' E 023°36'0 0.0
2017-Jan-11 11:31N 38°02' E 023°36'0 0.0
2017-Jan-11 10:31N 38°02' E 023°36'0 0.0
2017-Jan-11 09:16N 38°02' E 023°36'0 0.0
2017-Jan-11 08:31N 38°02' E 023°36'0 0.0
2017-Jan-11 07:25N 38°02' E 023°36'0 0.0
2017-Jan-11 06:31N 38°02' E 023°36'0 0.0
2017-Jan-11 05:31N 38°02' E 023°36'0 0.0
2017-Jan-11 04:31N 38°02' E 023°36'0 0.0
2017-Jan-11 03:31N 38°02' E 023°36'2 2.1
2017-Jan-11 02:33N 38°01' E 023°33'1 1.1
2017-Jan-11 01:32N 38°02' E 023°32'0 0.0
2017-Jan-11 00:32N 38°02' E 023°32'0 0.0
2017-Jan-10 23:32N 38°02' E 023°32'0 0.0
2017-Jan-10 22:32N 38°02' E 023°32'0 0.0
2017-Jan-10 21:32N 38°02' E 023°32'0 0.0
2017-Jan-10 20:32N 38°02' E 023°32'0 0.0
2017-Jan-10 19:32N 38°02' E 023°32'0 0.0
2017-Jan-10 18:32N 38°02' E 023°32'0 0.0
2017-Jan-10 17:32N 38°02' E 023°32'0 0.0
2017-Jan-10 16:32N 38°02' E 023°32'0 0.0
2017-Jan-10 15:32N 38°02' E 023°32'0 0.0
2017-Jan-10 14:32N 38°02' E 023°32'0 0.0
2017-Jan-10 13:32N 38°02' E 023°32'0 0.0
2017-Jan-10 12:32N 38°02' E 023°32'0 0.0
2017-Jan-10 11:32N 38°02' E 023°32'0 0.0
2017-Jan-10 10:32N 38°02' E 023°32'0 0.0
2017-Jan-10 09:32N 38°02' E 023°32'0 0.0
2017-Jan-10 08:33N 38°02' E 023°32'5 5.5
2017-Jan-10 07:34N 37°57' E 023°35'3 2.9
2017-Jan-10 06:33N 37°54' E 023°34'1 0.5
2017-Jan-10 05:17N 37°54' E 023°33'0 0.0
2017-Jan-10 04:32N 37°54' E 023°33'0 0.0
2017-Jan-10 03:32N 37°54' E 023°33'0 0.0
2017-Jan-10 02:32N 37°54' E 023°33'0 0.0
2017-Jan-10 01:32N 37°54' E 023°33'0 0.1
2017-Jan-10 00:32N 37°54' E 023°33'0 0.0
2017-Jan-09 23:32N 37°54' E 023°33'0 0.0
2017-Jan-09 22:29N 37°54' E 023°33'0 0.0
2017-Jan-09 21:32N 37°54' E 023°33'0 0.0
2017-Jan-09 20:32N 37°54' E 023°33'0 0.0
2017-Jan-09 19:32N 37°54' E 023°33'0 0.3
2017-Jan-09 18:33N 37°54' E 023°34'10 9.9
2017-Jan-09 17:33N 37°46' E 023°42'71 5.8
2017-Jan-09 05:27N 37°32' E 025°09'0 0.0
2017-Jan-09 04:33N 37°32' E 025°09'0 0.0
2017-Jan-09 03:15N 37°32' E 025°09'0 0.0
2017-Jan-09 01:27N 37°32' E 025°09'0 0.0
2017-Jan-08 20:24N 37°32' E 025°09'0 0.0
2017-Jan-08 19:33N 37°32' E 025°09'0 0.0
2017-Jan-08 18:33N 37°32' E 025°09'0 0.0
2017-Jan-08 17:18N 37°32' E 025°09'0 0.0
2017-Jan-08 16:33N 37°32' E 025°09'0 0.0
2017-Jan-08 14:30N 37°32' E 025°09'0 0.0
2017-Jan-08 13:33N 37°32' E 025°09'0 0.0
2017-Jan-08 12:30N 37°32' E 025°09'0 0.0
2017-Jan-08 11:27N 37°32' E 025°09'0 0.0
2017-Jan-08 10:24N 37°32' E 025°09'0 0.0
2017-Jan-08 09:30N 37°32' E 025°09'0 0.0
2017-Jan-08 08:33N 37°32' E 025°09'0 0.0
2017-Jan-08 07:33N 37°32' E 025°09'0 0.0
2017-Jan-08 06:33N 37°32' E 025°09'0 0.0
2017-Jan-08 05:33N 37°32' E 025°09'0 0.0
2017-Jan-08 04:30N 37°32' E 025°09'0 0.0
2017-Jan-08 03:33N 37°32' E 025°09'0 0.0
2017-Jan-08 02:30N 37°32' E 025°09'0 0.0
2017-Jan-08 01:27N 37°32' E 025°09'0 0.0
2017-Jan-08 00:24N 37°32' E 025°09'  
2017-Jan-04 12:34N 37°10' E 025°15'10 9.7
2017-Jan-04 11:34N 37°01' E 025°19'  
Track history (hours):
 
Tides and Currents Weather Stations Pressure Air Temp Water Temp Dewpoint Dewpoint Depression Visibility Wind Speed Wind Dir Waves Ship Positions

Eko 2

Last reported at 2017-Jan-13 15:33 UTC. Time now 2017-Jan-17 19:16 UTC.
Position N 37°04' E 025°18'.

Length 89 m; draft 4.3 m.

Type: Ship (hazmat cat A). MMSI: 240827000.

Date/timePositionNaut miles runAvg speedWind from/ knotsBaromVisibWave heightAir tempDewpointWater temp
2017-Jan-13 15:33N 37°04' E 025°18'1010.0
2017-Jan-13 14:33N 37°14' E 025°19'1310.1
2017-Jan-13 13:17N 37°26' E 025°17'2 2.9
2017-Jan-13 12:31N 37°28' E 025°20'0 0.0
2017-Jan-13 11:31N 37°28' E 025°20'0 0.0
2017-Jan-13 10:31N 37°28' E 025°20'0 0.0
2017-Jan-13 09:31N 37°28' E 025°20'0 0.0
2017-Jan-13 08:31N 37°28' E 025°20'0 0.0
2017-Jan-13 07:31N 37°28' E 025°20'0 0.0
2017-Jan-13 06:31N 37°28' E 025°20'0 0.0
2017-Jan-13 05:31N 37°28' E 025°20'0 0.0
2017-Jan-13 04:28N 37°28' E 025°20'0 0.0
2017-Jan-13 03:31N 37°28' E 025°20'0 0.5
2017-Jan-13 02:33N 37°28' E 025°19'9 9.3
2017-Jan-13 01:33N 37°30' E 025°07'6310.0
2017-Jan-12 19:14N 37°38' E 023°49'6 8.9
2017-Jan-12 18:33N 37°40' E 023°42'1010.2
2017-Jan-12 17:33N 37°50' E 023°37'8 8.2
2017-Jan-12 16:33N 37°57' E 023°33'4 4.1
2017-Jan-12 15:32N 38°02' E 023°32'0 0.0
2017-Jan-12 14:29N 38°02' E 023°32'0 0.0
2017-Jan-12 13:32N 38°02' E 023°32'0 0.0
2017-Jan-12 12:32N 38°02' E 023°32'0 0.1
2017-Jan-12 11:32N 38°02' E 023°32'0 0.0
2017-Jan-12 10:32N 38°02' E 023°32'0 0.0
2017-Jan-12 09:32N 38°02' E 023°32'0 0.1
2017-Jan-12 08:29N 38°02' E 023°32'0 0.1
2017-Jan-12 07:32N 38°02' E 023°32'0 0.1
2017-Jan-12 06:32N 38°02' E 023°32'0 0.0
2017-Jan-12 05:32N 38°02' E 023°32'0 0.0
2017-Jan-12 04:32N 38°02' E 023°32'0 0.1
2017-Jan-12 03:32N 38°02' E 023°32'0 0.1
2017-Jan-12 02:32N 38°02' E 023°32'0 0.1
2017-Jan-12 01:32N 38°02' E 023°32'0 0.0
2017-Jan-12 00:32N 38°02' E 023°32'0 0.0
2017-Jan-11 23:32N 38°02' E 023°32'0 0.0
2017-Jan-11 22:29N 38°02' E 023°32'0 0.0
2017-Jan-11 21:32N 38°02' E 023°32'0 0.0
2017-Jan-11 20:32N 38°02' E 023°32'0 0.0
2017-Jan-11 19:32N 38°02' E 023°32'0 0.1
2017-Jan-11 18:32N 38°02' E 023°32'0 0.1
2017-Jan-11 17:29N 38°02' E 023°32'0 0.0
2017-Jan-11 16:32N 38°02' E 023°32'0 0.1
2017-Jan-11 15:32N 38°02' E 023°32'0 0.0
2017-Jan-11 14:32N 38°02' E 023°32'0 0.0
2017-Jan-11 13:32N 38°02' E 023°32'3 2.5
2017-Jan-11 12:31N 38°02' E 023°36'0 0.0
2017-Jan-11 11:31N 38°02' E 023°36'0 0.0
2017-Jan-11 10:31N 38°02' E 023°36'0 0.0
2017-Jan-11 09:16N 38°02' E 023°36'0 0.0
2017-Jan-11 08:31N 38°02' E 023°36'0 0.0
2017-Jan-11 07:25N 38°02' E 023°36'0 0.0
2017-Jan-11 06:31N 38°02' E 023°36'0 0.0
2017-Jan-11 05:31N 38°02' E 023°36'0 0.0
2017-Jan-11 04:31N 38°02' E 023°36'0 0.0
2017-Jan-11 03:31N 38°02' E 023°36'2 2.1
2017-Jan-11 02:33N 38°01' E 023°33'1 1.1
2017-Jan-11 01:32N 38°02' E 023°32'0 0.0
2017-Jan-11 00:32N 38°02' E 023°32'0 0.0
2017-Jan-10 23:32N 38°02' E 023°32'0 0.0
2017-Jan-10 22:32N 38°02' E 023°32'0 0.0
2017-Jan-10 21:32N 38°02' E 023°32'0 0.0
2017-Jan-10 20:32N 38°02' E 023°32'0 0.0
2017-Jan-10 19:32N 38°02' E 023°32'0 0.0
2017-Jan-10 18:32N 38°02' E 023°32'0 0.0
2017-Jan-10 17:32N 38°02' E 023°32'0 0.0
2017-Jan-10 16:32N 38°02' E 023°32'0 0.0
2017-Jan-10 15:32N 38°02' E 023°32'0 0.0
2017-Jan-10 14:32N 38°02' E 023°32'0 0.0
2017-Jan-10 13:32N 38°02' E 023°32'0 0.0
2017-Jan-10 12:32N 38°02' E 023°32'0 0.0
2017-Jan-10 11:32N 38°02' E 023°32'0 0.0
2017-Jan-10 10:32N 38°02' E 023°32'0 0.0
2017-Jan-10 09:32N 38°02' E 023°32'0 0.0
2017-Jan-10 08:33N 38°02' E 023°32'5 5.5
2017-Jan-10 07:34N 37°57' E 023°35'3 2.9
2017-Jan-10 06:33N 37°54' E 023°34'1 0.5
2017-Jan-10 05:17N 37°54' E 023°33'0 0.0
2017-Jan-10 04:32N 37°54' E 023°33'0 0.0
2017-Jan-10 03:32N 37°54' E 023°33'0 0.0
2017-Jan-10 02:32N 37°54' E 023°33'0 0.0
2017-Jan-10 01:32N 37°54' E 023°33'0 0.1
2017-Jan-10 00:32N 37°54' E 023°33'0 0.0
2017-Jan-09 23:32N 37°54' E 023°33'0 0.0
2017-Jan-09 22:29N 37°54' E 023°33'0 0.0
2017-Jan-09 21:32N 37°54' E 023°33'0 0.0
2017-Jan-09 20:32N 37°54' E 023°33'0 0.0
2017-Jan-09 19:32N 37°54' E 023°33'0 0.3
2017-Jan-09 18:33N 37°54' E 023°34'10 9.9
2017-Jan-09 17:33N 37°46' E 023°42'71 5.8
2017-Jan-09 05:27N 37°32' E 025°09'0 0.0
2017-Jan-09 04:33N 37°32' E 025°09'0 0.0
2017-Jan-09 03:15N 37°32' E 025°09'0 0.0
2017-Jan-09 01:27N 37°32' E 025°09'0 0.0
2017-Jan-08 20:24N 37°32' E 025°09'0 0.0
2017-Jan-08 19:33N 37°32' E 025°09'0 0.0
2017-Jan-08 18:33N 37°32' E 025°09'0 0.0
2017-Jan-08 17:18N 37°32' E 025°09'0 0.0
2017-Jan-08 16:33N 37°32' E 025°09'0 0.0
2017-Jan-08 14:30N 37°32' E 025°09'0 0.0
2017-Jan-08 13:33N 37°32' E 025°09'0 0.0
2017-Jan-08 12:30N 37°32' E 025°09'0 0.0
2017-Jan-08 11:27N 37°32' E 025°09'0 0.0
2017-Jan-08 10:24N 37°32' E 025°09'0 0.0
2017-Jan-08 09:30N 37°32' E 025°09'0 0.0
2017-Jan-08 08:33N 37°32' E 025°09'0 0.0
2017-Jan-08 07:33N 37°32' E 025°09'0 0.0
2017-Jan-08 06:33N 37°32' E 025°09'0 0.0
2017-Jan-08 05:33N 37°32' E 025°09'0 0.0
2017-Jan-08 04:30N 37°32' E 025°09'0 0.0
2017-Jan-08 03:33N 37°32' E 025°09'0 0.0
2017-Jan-08 02:30N 37°32' E 025°09'0 0.0
2017-Jan-08 01:27N 37°32' E 025°09'0 0.0
2017-Jan-08 00:24N 37°32' E 025°09'  
2017-Jan-04 12:34N 37°10' E 025°15'10 9.7
2017-Jan-04 11:34N 37°01' E 025°19'  

Dump ship's entire track history